Latest Weather Observations for Scone Airport

IDN60801

Issued at 1:02 pm EDT Thursday 23 March 2017 (issued every 30 minutes, with the page automatically refreshed every 10 minutes)

About weather observations | Map of weather stations | Latest weather observations for NSW | Other Formats
Station Details ID: 061363 Name: SCONE AIRPORT AWS Lat: -32.03 Lon: 150.83 Height: 221.4 m
Data from the previous 72 hours. | See also: Recent months at Scone Airport
Date/Time
EDT
Temp
°C
App
Temp
°C
Dew
Point
°C
Rel
Hum
%
Delta-T
°C
Wind Press
QNH
hPa
Press
MSL
hPa
Rain since
9am
mm
Dir  Spd
km/h
Gust
km/h
Spd
kts
Gust
kts
23/01:00pm 21.9 21.6 19.1 84 1.8 SSE 19 22 10 12 1018.4 1017.5 0.0
23/12:30pm 20.7 19.7 17.9 84 1.7 S 20 30 11 16 1018.9 1018.1 0.0
23/12:00pm 21.0 20.3 18.6 86 1.5 S 20 28 11 15 1018.9 1018.1 0.0
23/11:30am 21.0 20.6 18.8 87 1.4 S 19 24 10 13 1019.1 1018.3 0.0
23/11:00am 20.9 20.3 18.8 88 1.3 S 20 26 11 14 1018.9 1018.1 0.0
23/10:30am 20.9 20.8 19.6 92 0.8 S 19 24 10 13 1018.8 1018.0 0.0
23/10:00am 20.3 20.4 19.1 93 0.8 S 17 20 9 11 1018.6 1017.8 0.0
23/09:30am 20.1 19.7 19.4 96 0.4 SSE 20 28 11 15 1018.4 1017.5 0.0
23/09:00am 20.5 20.7 20.2 98 0.2 S 19 24 10 13 1018.2 1017.3 14.2
23/08:30am 20.7 21.4 20.5 99 0.1 SSE 17 20 9 11 1017.9 1017.0 14.2
23/08:00am 20.4 22.1 20.2 99 0.1 SSE 11 17 6 9 1017.5 1016.6 14.2
23/07:30am 20.2 22.2 20.0 99 0.1 SSE 9 13 5 7 1017.1 1016.2 14.2
23/07:00am 20.1 22.4 19.9 99 0.1 SSE 7 9 4 5 1017.0 1016.1 14.2
23/06:30am 20.0 21.9 19.8 99 0.1 S 9 11 5 6 1016.5 1015.7 14.2
23/06:00am 19.8 21.6 19.6 99 0.1 SSW 9 11 5 6 1016.2 1015.4 14.2
23/05:30am 19.7 22.0 19.5 99 0.1 SSW 6 9 3 5 1016.0 1015.2 14.2
23/05:00am 19.4 21.0 19.2 99 0.1 SSE 9 9 5 5 1015.8 1015.0 14.2
23/04:30am 19.6 22.3 19.4 99 0.1 S 4 9 2 5 1015.9 1015.1 14.2
23/04:00am 19.3 21.8 19.1 99 0.1 SSE 4 6 2 3 1016.1 1015.3 14.2
23/03:30am 19.1 20.2 18.9 99 0.1 S 11 13 6 7 1015.9 1015.1 14.2
23/03:00am 19.1 20.2 18.9 99 0.1 S 11 19 6 10 1016.0 1015.2 14.2
23/02:30am 19.4 21.4 19.2 99 0.1 ESE 7 11 4 6 1016.0 1015.2 14.2
23/02:00am 19.4 21.4 19.2 99 0.1 WNW 7 9 4 5 1016.0 1015.2 14.2
23/01:30am 19.5 22.9 19.3 99 0.1 CALM 0 0 0 0 1015.8 1015.0 14.2
23/01:00am 19.9 23.5 19.7 99 0.1 CALM 0 0 0 0 1016.0 1015.2 14.2
23/12:30am 19.9 23.5 19.7 99 0.1 CALM 0 0 0 0 1016.2 1015.4 14.2
23/12:00am 20.0 23.2 19.8 99 0.1 ENE 2 9 1 5 1015.9 1015.1 14.2
 
Date/Time
EDT
Temp
°C
App
Temp
°C
Dew
Point
°C
Rel
Hum
%
Delta-T
°C
Wind Press
QNH
hPa
Press
MSL
hPa
Rain since
9am
mm
Dir  Spd
km/h
Gust
km/h
Spd
kts
Gust
kts
22/11:30pm 19.7 22.0 19.5 99 0.1 ENE 6 9 3 5 1016.0 1015.2 14.2
22/11:00pm 19.6 21.7 19.4 99 0.1 WNW 7 9 4 5 1015.7 1014.9 14.2
22/10:30pm 19.9 21.2 19.4 97 0.3 NW 11 13 6 7 1015.5 1014.7 14.2
22/10:00pm 20.3 22.9 19.3 94 0.6 ENE 4 7 2 4 1015.6 1014.8 14.2
22/09:30pm 20.5 20.5 19.7 95 0.5 SE 19 24 10 13 1015.9 1015.1 14.2
22/09:00pm 20.5 21.5 20.2 98 0.2 S 15 24 8 13 1016.0 1015.2 14.2
22/08:30pm 20.4 22.9 20.2 99 0.1 W 7 9 4 5 1015.0 1014.2 14.2
22/08:00pm 20.6 22.7 20.1 97 0.3 NNE 9 15 5 8 1014.5 1013.6 14.2
22/07:30pm 20.4 22.5 20.1 98 0.2 NNW 9 13 5 7 1014.5 1013.6 13.6
22/07:00pm 20.2 22.6 20.0 99 0.1 NNW 7 13 4 7 1014.4 1013.5 13.4
22/06:30pm 20.2 22.1 19.7 97 0.3 NNW 9 13 5 7 1014.3 1013.4 13.0
22/06:00pm 20.2 21.0 19.9 98 0.2 N 15 20 8 11 1013.8 1012.9 12.0
22/05:30pm 20.0 20.2 19.3 96 0.4 NW 17 22 9 12 1014.1 1013.2 9.8
22/05:00pm 21.1 22.9 20.3 95 0.5 WNW 11 15 6 8 1013.7 1012.8 8.2
22/04:30pm 22.8 26.7 21.1 90 1.1 SSW 2 13 1 7 1013.7 1012.8 0.6
22/04:00pm 22.8 24.9 20.9 89 1.3 S 11 13 6 7 1013.1 1012.2 0.2
22/03:30pm 23.5 23.5 19.8 80 2.4 S 19 28 10 15 1013.1 1012.2 0.2
22/03:00pm 27.1 28.1 19.4 62 5.0 N 13 20 7 11 1012.6 1011.7 0.2
22/02:30pm 27.4 30.2 19.7 63 5.0 N 4 13 2 7 1013.1 1012.2 0.2
22/02:00pm 27.8 29.0 19.8 61 5.3 NNW 13 19 7 10 1013.3 1012.4 0.2
22/01:30pm 27.8 28.9 19.6 61 5.4 NW 13 19 7 10 1013.6 1012.7 0.2
22/01:00pm 27.0 27.2 19.4 63 5.0 NNW 17 26 9 14 1013.9 1013.0 0.2
22/12:30pm 26.2 26.9 19.6 67 4.3 NNW 15 20 8 11 1014.4 1013.5 0.2
22/12:00pm 26.1 26.7 19.5 67 4.3 NW 15 20 8 11 1014.7 1013.9 0.2
22/11:30am 26.4 27.0 19.5 66 4.5 NW 15 19 8 10 1015.0 1014.2 0.2
22/11:00am 26.2 27.1 20.1 69 4.0 NW 15 20 8 11 1015.3 1014.5 0.2
22/10:30am 25.9 25.6 19.1 66 4.4 NW 19 26 10 14 1015.4 1014.6 0.0
22/10:00am 25.8 27.0 19.9 70 3.9 NNW 13 17 7 9 1015.4 1014.6 0.0
22/09:30am 24.6 27.3 20.7 79 2.6 N 7 11 4 6 1015.2 1014.4 0.0
22/09:00am 24.0 26.8 20.5 81 2.3 NNW 6 7 3 4 1015.0 1014.2 0.6
22/08:30am 23.5 25.8 19.8 80 2.4 NW 7 9 4 5 1014.6 1013.7 0.6
22/08:00am 22.7 25.1 20.0 85 1.8 NW 7 11 4 6 1014.2 1013.3 0.6
22/07:30am 22.9 24.3 19.5 81 2.2 NNW 11 15 6 8 1013.8 1012.9 0.6
22/07:00am 22.9 25.1 19.5 81 2.2 N 7 13 4 7 1013.5 1012.6 0.6
22/06:30am 21.8 23.6 20.3 91 1.0 NW 11 13 6 7 1013.2 1012.3 0.6
22/06:00am 22.1 24.5 20.9 93 0.8 NNW 9 17 5 9 1013.0 1012.1 0.6
22/05:30am 21.0 24.3 20.8 99 0.1 NNE 4 7 2 4 1013.2 1012.3 0.6
22/05:00am 21.0 23.8 20.8 99 0.1 NNE 7 9 4 5 1013.1 1012.2 0.6
22/04:30am 21.0 24.3 20.7 98 0.2 SSE 4 9 2 5 1013.2 1012.3 0.6
22/04:00am 21.1 25.1 20.6 97 0.3 CALM 0 0 0 0 1013.1 1012.2 0.6
22/03:30am 21.1 24.6 20.4 96 0.5 E 2 9 1 5 1013.2 1012.3 0.6
22/03:00am 21.7 25.0 20.7 94 0.7 NE 4 9 2 5 1013.4 1012.5 0.6
22/02:30am 22.0 24.6 20.5 91 1.0 NE 7 9 4 5 1013.4 1012.5 0.6
22/02:00am 22.3 24.9 20.4 89 1.2 NNW 7 13 4 7 1013.6 1012.7 0.6
22/01:30am 22.5 25.2 20.6 89 1.2 WNW 7 9 4 5 1013.7 1012.8 0.6
22/01:00am 22.7 24.3 20.8 89 1.2 WNW 13 17 7 9 1013.8 1012.9 0.2
22/12:30am 23.4 24.7 20.2 82 2.1 NW 13 15 7 8 1013.7 1012.8 0.0
22/12:00am 23.8 25.0 19.9 79 2.5 WNW 13 17 7 9 1014.3 1013.4 0.0
 
Date/Time
EDT
Temp
°C
App
Temp
°C
Dew
Point
°C
Rel
Hum
%
Delta-T
°C
Wind Press
QNH
hPa
Press
MSL
hPa
Rain since
9am
mm
Dir  Spd
km/h
Gust
km/h
Spd
kts
Gust
kts
21/11:30pm 22.8 24.8 20.0 84 1.8 W 9 13 5 7 1014.3 1013.4 0.0
21/11:00pm 22.6 24.9 19.9 85 1.7 NNE 7 9 4 5 1014.1 1013.2 0.0
21/10:30pm 22.8 25.1 19.8 83 1.9 WNW 7 9 4 5 1014.8 1014.0 0.0
21/10:00pm 23.0 24.8 19.6 81 2.2 WSW 9 13 5 7 1014.7 1013.9 0.0
21/09:30pm 23.6 25.7 19.3 77 2.8 SSE 7 11 4 6 1014.5 1013.6 0.0
21/09:00pm 24.0 22.7 19.1 74 3.1 SE 24 39 13 21 1014.2 1013.3 0.0
21/08:57pm 24.5 23.9 18.9 71 3.6 SE 20 39 11 21 1013.9 1013.0 0.0
21/08:30pm 27.2 28.1 19.3 62 5.1 NNE 13 20 7 11 1013.2 1012.3 0.0
21/08:00pm 26.5 30.3 20.1 68 4.2 CALM 0 6 0 3 1012.5 1011.6 0.0
21/07:30pm 27.7 29.9 19.5 61 5.4 N 7 9 4 5 1012.1 1011.2 0.0
21/07:00pm 28.3 30.3 19.2 57 5.9 N 7 11 4 6 1012.0 1011.1 0.0
21/06:30pm 29.4 33.0 19.7 56 6.4 CALM 0 0 0 0 1012.1 1011.2 0.0
21/06:00pm 30.0 31.5 18.8 51 7.3 N 9 13 5 7 1011.9 1011.0 0.0
21/05:30pm 30.9 32.6 19.3 50 7.6 NNW 9 17 5 9 1011.6 1010.8 0.0
21/05:00pm 30.8 31.9 18.8 48 7.8 N 11 15 6 8 1011.5 1010.7 0.0
21/04:30pm 31.2 31.8 19.5 49 7.7 NNW 15 26 8 14 1011.7 1010.9 0.0
21/04:00pm 30.9 31.1 19.3 50 7.6 NW 17 24 9 13 1012.0 1011.1 0.0
21/03:30pm 30.4 31.2 19.1 50 7.4 NW 13 19 7 10 1012.3 1011.4 0.0
21/03:00pm 30.5 30.7 18.6 49 7.8 NNW 15 20 8 11 1012.8 1011.9 0.0
21/02:30pm 30.5 32.3 20.4 54 6.7 N 11 20 6 11 1013.3 1012.4 0.0
21/02:00pm 29.4 32.6 19.7 56 6.4 WNW 2 7 1 4 1013.9 1013.0 0.0
21/01:30pm 28.5 30.5 20.8 63 5.1 WNW 11 17 6 9 1014.3 1013.4 0.0
21/01:00pm 28.0 30.7 20.6 64 4.9 NNW 7 15 4 8 1014.7 1013.9 0.0
21/12:30pm 27.0 29.3 19.9 65 4.7 NNW 7 11 4 6 1015.1 1014.3 0.0
21/12:00pm 26.9 29.8 21.0 70 3.9 N 7 9 4 5 1015.4 1014.6 0.0
21/11:30am 25.7 29.2 21.1 76 3.1 WNW 4 9 2 5 1015.8 1015.0 0.0
21/11:00am 24.1 27.3 21.2 84 1.9 NNW 6 9 3 5 1016.1 1015.3 0.0
21/10:30am 23.5 27.9 21.4 88 1.4 CALM 0 2 0 1 1016.4 1015.6 0.0
21/10:00am 22.8 27.5 22.0 95 0.5 CALM 0 6 0 3 1016.5 1015.7 0.0
21/09:30am 21.9 26.5 21.7 99 0.1 CALM 0 0 0 0 1016.3 1015.5 0.0
21/09:00am 21.7 26.2 21.5 99 0.1 CALM 0 6 0 3 1016.2 1015.4 0.0
21/08:30am 21.4 25.1 21.4 100 0.0 SSE 4 6 2 3 1016.2 1015.4 0.0
21/08:00am 21.2 24.4 21.2 100 0.0 SSE 6 7 3 4 1016.0 1015.2 0.0
21/07:30am 21.1 25.4 21.1 100 0.0 CALM 0 0 0 0 1015.6 1014.8 0.0
21/07:00am 21.1 25.3 20.9 99 0.1 CALM 0 0 0 0 1015.4 1014.6 0.0
21/06:30am 21.1 25.3 20.9 99 0.1 CALM 0 0 0 0 1015.1 1014.3 0.0
21/06:00am 21.1 25.3 20.9 99 0.1 CALM 0 0 0 0 1014.8 1014.0 0.0
21/05:30am 21.2 25.4 21.0 99 0.1 CALM 0 0 0 0 1014.6 1013.7 0.0
21/05:00am 21.3 24.4 21.1 99 0.1 SE 6 9 3 5 1014.2 1013.3 0.0
21/04:30am 21.3 24.2 21.1 99 0.1 ESE 7 9 4 5 1014.5 1013.6 0.0
21/04:00am 21.3 24.4 21.1 99 0.1 ENE 6 7 3 4 1014.5 1013.6 0.0
21/03:30am 21.0 25.1 20.8 99 0.1 CALM 0 0 0 0 1014.7 1013.9 0.0
21/03:00am 20.7 24.7 20.5 99 0.1 CALM 0 0 0 0 1014.9 1014.1 0.0
21/02:30am 20.6 24.1 20.4 99 0.1 NNE 2 7 1 4 1015.1 1014.3 0.0
21/02:00am 20.7 24.3 20.5 99 0.1 N 2 6 1 3 1015.3 1014.5 0.0
21/01:30am 21.0 25.1 20.8 99 0.1 CALM 0 0 0 0 1015.4 1014.6 0.0
21/01:00am 20.9 25.0 20.7 99 0.1 CALM 0 0 0 0 1015.6 1014.8 0.0
21/12:30am 21.2 24.9 20.7 97 0.3 NW 2 7 1 4 1015.8 1015.0 0.0
21/12:00am 21.6 25.3 20.8 95 0.5 W 2 6 1 3 1016.0 1015.2 0.0
 
Date/Time
EDT
Temp
°C
App
Temp
°C
Dew
Point
°C
Rel
Hum
%
Delta-T
°C
Wind Press
QNH
hPa
Press
MSL
hPa
Rain since
9am
mm
Dir  Spd
km/h
Gust
km/h
Spd
kts
Gust
kts
20/11:30pm 22.0 26.4 21.3 96 0.5 CALM 0 0 0 0 1016.1 1015.3 0.0
20/11:00pm 22.3 26.7 21.3 94 0.7 CALM 0 0 0 0 1016.0 1015.2 0.0
20/10:30pm 22.5 26.7 21.0 91 1.0 CALM 0 0 0 0 1016.2 1015.4 0.0
20/10:00pm 23.1 26.9 21.0 88 1.4 N 2 7 1 4 1016.3 1015.5 0.0
20/09:30pm 23.3 27.6 21.2 88 1.4 CALM 0 0 0 0 1016.1 1015.3 0.0
20/09:00pm 23.7 28.1 21.4 87 1.5 CALM 0 0 0 0 1016.2 1015.4 0.0
20/08:30pm 23.9 28.2 21.2 85 1.8 CALM 0 0 0 0 1015.8 1015.0 0.0
20/08:00pm 23.9 27.1 21.2 85 1.8 W 6 7 3 4 1015.3 1014.5 0.0
20/07:30pm 24.5 26.5 20.8 80 2.4 SSE 11 13 6 7 1015.0 1014.2 0.0
20/07:00pm 24.9 27.3 20.8 78 2.7 SSE 9 11 5 6 1014.6 1013.7 0.0
20/06:30pm 25.7 28.2 21.1 76 3.1 SSE 9 11 5 6 1014.6 1013.7 0.0
20/06:00pm 26.2 28.6 20.8 72 3.6 SE 9 13 5 7 1014.7 1013.9 0.0
20/05:30pm 27.0 29.5 19.9 65 4.7 SSE 6 9 3 5 1014.7 1013.9 0.0
20/05:00pm 27.2 28.6 19.5 62 5.0 SSW 11 13 6 7 1014.5 1013.6 0.0
20/04:30pm 27.5 29.2 19.3 61 5.3 S 9 13 5 7 1014.8 1014.0 0.0
20/04:00pm 28.1 30.2 19.3 58 5.7 S 7 11 4 6 1015.1 1014.3 0.0
20/03:30pm 27.9 30.8 19.1 58 5.7 SW 2 9 1 5 1015.1 1014.3 0.0
20/03:00pm 27.2 29.7 19.0 61 5.3 WSW 4 9 2 5 1015.4 1014.6 0.0
20/02:30pm 26.8 29.2 20.9 70 3.9 SW 9 11 5 6 1015.7 1014.9 0.0
20/02:00pm 26.4 29.6 20.5 70 3.9 E 4 7 2 4 1016.2 1015.4 0.0
20/01:30pm 26.5 29.6 21.0 72 3.7 ENE 6 9 3 5 1016.4 1015.6 0.0

Other Formats:

Comma delimited format used in spreadsheet applications
http://www.bom.gov.au/fwo/IDN60801/IDN60801.95758.axf

JavaScript Object Notation format (JSON) in row-major order
http://www.bom.gov.au/fwo/IDN60801/IDN60801.95758.json